Albion, Rhode Island
Current Conditions -  °F | °C
As of 12:15 AM on Monday 20 Oct 2014 (Local Time) from KSFZ Reporting Station
Clear Clear  
Wind Chill: 33°   Ceiling: Unl
Heat Index: 37°   Visibility: 10mi
Dew Point: 19°   Wind: 6mph
Humidity: 48%   Direction: 300°WNW
Pressure: 29.97"   Gusts: NA
Location:  41.95°N, 71.45°W
Report Text: KSFZ 200415Z 30005KT 10SM CLR 03/M07 A2997 RMK AO1
Loading
Personal Weather Stations






























Interactive Weather Map
Tropical Storm Tracking
New forecast layout! Learn more

10-Day Weather Forecast

Advertisements
Track Severe Weather on mobile